createdAt,value
2018-05-23T00:01:07.000Z,31.4
2018-05-23T00:02:22.000Z,31.3
2018-05-23T00:04:07.000Z,31.3
2018-05-23T00:05:22.000Z,31.3
2018-05-23T00:06:22.000Z,31.3
2018-05-23T00:07:22.000Z,31.3
2018-05-23T00:08:22.000Z,31.4
2018-05-23T00:10:22.000Z,31.4
2018-05-23T00:12:22.000Z,31.5
2018-05-23T00:13:22.000Z,31.4
2018-05-23T00:15:07.000Z,31.4
2018-05-23T00:16:22.000Z,31.4
2018-05-23T00:18:22.000Z,31.4
2018-05-23T00:19:22.000Z,31.4
2018-05-23T00:21:22.000Z,31.4
2018-05-23T00:22:22.000Z,31.3
2018-05-23T00:24:22.000Z,31.3
2018-05-23T00:26:22.000Z,31.3
2018-05-23T00:28:22.000Z,31.2
2018-05-23T00:29:22.000Z,31.2
2018-05-23T00:31:22.000Z,31.3
2018-05-23T00:32:22.000Z,31.3
2018-05-23T00:33:22.000Z,31.3
2018-05-23T00:35:22.000Z,31.4
2018-05-23T00:37:22.000Z,31.4
2018-05-23T00:38:22.000Z,31.3
2018-05-23T00:40:06.000Z,31.3
2018-05-23T00:41:22.000Z,31.3
2018-05-23T00:43:06.000Z,31.3
2018-05-23T00:44:22.000Z,31.2
2018-05-23T00:45:22.000Z,31.2
2018-05-23T00:46:22.000Z,31.3
2018-05-23T00:48:22.000Z,31.4
2018-05-23T00:50:22.000Z,31.3
2018-05-23T00:51:22.000Z,31.3
2018-05-23T00:52:22.000Z,31.3
2018-05-23T00:54:22.000Z,31.3
2018-05-23T00:56:22.000Z,31.3
2018-05-23T00:57:22.000Z,31.2
2018-05-23T00:58:22.000Z,31.2
2018-05-23T01:00:22.000Z,31.2
2018-05-23T01:01:22.000Z,31.1
2018-05-23T01:03:22.000Z,31.2
2018-05-23T01:04:22.000Z,31.2
2018-05-23T01:06:06.000Z,31.2
2018-05-23T01:07:22.000Z,31.2
2018-05-23T01:08:22.000Z,31.2
2018-05-23T01:10:22.000Z,31.2
2018-05-23T01:12:22.000Z,31.2
2018-05-23T01:13:22.000Z,31.2
2018-05-23T01:14:22.000Z,31.2
2018-05-23T01:16:22.000Z,31.2
2018-05-23T01:18:22.000Z,31.2
2018-05-23T01:20:22.000Z,31.2
2018-05-23T01:21:22.000Z,31.2
2018-05-23T01:23:22.000Z,31.2
2018-05-23T01:25:07.000Z,31.2
2018-05-23T01:26:22.000Z,31.1
2018-05-23T01:28:22.000Z,31.2
2018-05-23T01:30:22.000Z,31.1
2018-05-23T01:32:22.000Z,31.1
2018-05-23T01:34:22.000Z,31.1
2018-05-23T01:36:22.000Z,31
2018-05-23T01:38:22.000Z,30.9
2018-05-23T01:40:22.000Z,31
2018-05-23T01:42:22.000Z,31
2018-05-23T01:44:22.000Z,30.9
2018-05-23T01:46:22.000Z,30.9
2018-05-23T01:47:22.000Z,30.9
2018-05-23T01:49:22.000Z,30.9
2018-05-23T01:51:22.000Z,31
2018-05-23T01:52:22.000Z,31
2018-05-23T01:54:22.000Z,31.1
2018-05-23T01:56:07.000Z,31.1
2018-05-23T01:57:22.000Z,31
2018-05-23T01:58:22.000Z,31.1
2018-05-23T02:00:22.000Z,31
2018-05-23T02:04:08.000Z,30.6
2018-05-23T02:05:08.000Z,30.6
2018-05-23T02:07:08.000Z,30.6
2018-05-23T02:09:08.000Z,30.7
2018-05-23T02:10:08.000Z,30.7
2018-05-23T02:12:08.000Z,30.8
2018-05-23T02:13:08.000Z,30.9
2018-05-23T02:14:08.000Z,31
2018-05-23T02:15:53.000Z,31.1
2018-05-23T02:17:08.000Z,31.1
2018-05-23T02:19:08.000Z,31.1
2018-05-23T02:20:08.000Z,31.1
2018-05-23T02:22:08.000Z,31.1
2018-05-23T02:23:08.000Z,31.1
2018-05-23T02:24:08.000Z,31.1
2018-05-23T02:26:08.000Z,31.1
2018-05-23T02:27:08.000Z,31.2
2018-05-23T02:29:08.000Z,31.2
2018-05-23T02:30:08.000Z,31.2
2018-05-23T02:32:08.000Z,31.2
2018-05-23T02:33:08.000Z,31.2
2018-05-23T02:35:08.000Z,31.2
2018-05-23T02:37:08.000Z,31.1
2018-05-23T02:39:08.000Z,31.1
2018-05-23T02:41:08.000Z,31.1
2018-05-23T02:43:08.000Z,31
2018-05-23T02:45:08.000Z,30.9
2018-05-23T02:47:08.000Z,31
2018-05-23T02:48:53.000Z,31
2018-05-23T02:50:08.000Z,30.9
2018-05-23T02:52:08.000Z,30.9
2018-05-23T02:53:08.000Z,30.9
2018-05-23T02:54:08.000Z,31
2018-05-23T02:56:08.000Z,31
2018-05-23T02:58:08.000Z,31
2018-05-23T02:59:08.000Z,31
2018-05-23T03:01:08.000Z,31.1
2018-05-23T03:03:08.000Z,31.1
2018-05-23T03:04:08.000Z,31.1
2018-05-23T03:05:08.000Z,31.1
2018-05-23T03:06:53.000Z,31.2
2018-05-23T03:08:08.000Z,31.2
2018-05-23T03:09:08.000Z,31.2
2018-05-23T03:10:53.000Z,31.2
2018-05-23T03:12:08.000Z,31.2
2018-05-23T03:14:08.000Z,31.1
2018-05-23T03:16:08.000Z,31.1
2018-05-23T03:18:08.000Z,31.1
2018-05-23T03:20:08.000Z,31
2018-05-23T03:21:08.000Z,31
2018-05-23T03:22:08.000Z,31.1
2018-05-23T03:24:08.000Z,31.1
2018-05-23T03:25:08.000Z,31.1
2018-05-23T03:26:53.000Z,31.2
2018-05-23T03:28:08.000Z,31.2
2018-05-23T03:30:08.000Z,31.1
2018-05-23T03:31:08.000Z,31.1
2018-05-23T03:33:08.000Z,31.1
2018-05-23T03:34:08.000Z,31.1
2018-05-23T03:35:08.000Z,31.2
2018-05-23T03:36:08.000Z,31.2
2018-05-23T03:38:08.000Z,31.3
2018-05-23T03:39:08.000Z,31.3
2018-05-23T03:44:08.000Z,30.8
2018-05-23T03:45:54.000Z,30.6
2018-05-23T03:47:54.000Z,30.6
2018-05-23T03:49:54.000Z,30.7
2018-05-23T03:50:54.000Z,30.7
2018-05-23T03:52:54.000Z,30.8
2018-05-23T03:54:54.000Z,30.9
2018-05-23T03:55:54.000Z,30.9
2018-05-23T03:56:54.000Z,30.9
2018-05-23T03:58:54.000Z,31
2018-05-23T04:00:54.000Z,31
2018-05-23T04:01:54.000Z,31.1
2018-05-23T04:03:54.000Z,31.1
2018-05-23T04:04:54.000Z,31.2
2018-05-23T04:06:54.000Z,31.1
2018-05-23T04:07:54.000Z,31.1
2018-05-23T04:08:54.000Z,31.1
2018-05-23T04:09:54.000Z,31.2
2018-05-23T04:11:54.000Z,31.2
2018-05-23T04:12:54.000Z,31.2
2018-05-23T04:14:54.000Z,31.2
2018-05-23T04:15:54.000Z,31.2
2018-05-23T04:17:54.000Z,31.2
2018-05-23T04:19:54.000Z,31.1
2018-05-23T04:20:54.000Z,31.1
2018-05-23T04:22:54.000Z,30.8
2018-05-23T04:23:54.000Z,30.5
2018-05-23T04:25:54.000Z,29.7
2018-05-23T04:26:54.000Z,29.3
2018-05-23T04:28:54.000Z,28.7
2018-05-23T04:30:38.000Z,28.4
2018-05-23T04:31:54.000Z,28.1
2018-05-23T04:32:54.000Z,27.9
2018-05-23T04:34:54.000Z,27.7
2018-05-23T04:35:54.000Z,27.7
2018-05-23T04:36:54.000Z,27.6
2018-05-23T04:37:54.000Z,27.6
2018-05-23T04:38:54.000Z,27.7
2018-05-23T04:39:54.000Z,27.7
2018-05-23T04:41:54.000Z,27.6
2018-05-23T04:42:54.000Z,27.6
2018-05-23T04:44:54.000Z,27.5
2018-05-23T04:46:54.000Z,27.4
2018-05-23T04:48:54.000Z,27.3
2018-05-23T04:50:54.000Z,27.2
2018-05-23T04:52:54.000Z,27.3
2018-05-23T04:53:54.000Z,27.4
2018-05-23T04:55:39.000Z,27.5
2018-05-23T04:56:54.000Z,27.5
2018-05-23T04:58:54.000Z,27.4
2018-05-23T04:59:54.000Z,27.4
2018-05-23T05:00:54.000Z,27.4
2018-05-23T05:01:54.000Z,27.5
2018-05-23T05:02:54.000Z,27.6
2018-05-23T05:04:54.000Z,27.6
2018-05-23T05:06:54.000Z,27.5
2018-05-23T05:07:54.000Z,27.4
2018-05-23T05:09:54.000Z,27.2
2018-05-23T05:10:54.000Z,27.2
2018-05-23T05:12:54.000Z,26.9
2018-05-23T05:14:54.000Z,26.8
2018-05-23T05:15:54.000Z,26.7
2018-05-23T05:16:54.000Z,26.7
2018-05-23T05:18:54.000Z,26.6
2018-05-23T05:19:54.000Z,26.5
2018-05-23T05:21:54.000Z,26.6
2018-05-23T05:22:54.000Z,26.6
2018-05-23T05:23:54.000Z,26.6
2018-05-23T05:24:54.000Z,26.7
2018-05-23T05:26:54.000Z,26.8
2018-05-23T05:27:54.000Z,26.9
2018-05-23T05:28:54.000Z,27
2018-05-23T05:30:54.000Z,27.4
2018-05-23T05:31:54.000Z,27.4
2018-05-23T05:33:54.000Z,27.4
2018-05-23T05:34:54.000Z,27.4
2018-05-23T05:35:54.000Z,27.5
2018-05-23T05:37:54.000Z,27.6
2018-05-23T05:39:54.000Z,27.6
2018-05-23T05:40:54.000Z,27.6
2018-05-23T05:42:54.000Z,27.7
2018-05-23T05:44:54.000Z,28
2018-05-23T05:45:54.000Z,28.1
2018-05-23T05:47:54.000Z,28.4
2018-05-23T05:48:54.000Z,28.4
2018-05-23T05:49:54.000Z,28.4
2018-05-23T05:51:54.000Z,28.4
2018-05-23T05:52:54.000Z,28.4
2018-05-23T05:54:54.000Z,28.5
2018-05-23T05:55:54.000Z,28.6
2018-05-23T05:57:39.000Z,28.9
2018-05-23T05:58:54.000Z,29.1
2018-05-23T06:00:54.000Z,29.2
2018-05-23T06:02:54.000Z,28.9
2018-05-23T06:03:54.000Z,28.9
2018-05-23T06:05:54.000Z,28.9
2018-05-23T06:06:54.000Z,28.9
2018-05-23T06:08:54.000Z,29
2018-05-23T06:10:54.000Z,28.9
2018-05-23T06:11:54.000Z,28.9
2018-05-23T06:13:54.000Z,28.9
2018-05-23T06:15:54.000Z,28.8
2018-05-23T06:16:54.000Z,28.8
2018-05-23T06:18:54.000Z,28.8
2018-05-23T06:19:54.000Z,28.8
2018-05-23T06:20:54.000Z,28.9
2018-05-23T06:22:54.000Z,28.9
2018-05-23T06:23:54.000Z,28.9
2018-05-23T06:24:54.000Z,29
2018-05-23T06:26:54.000Z,29
2018-05-23T06:27:54.000Z,29
2018-05-23T06:29:54.000Z,29
2018-05-23T06:30:54.000Z,29
2018-05-23T06:31:54.000Z,29
2018-05-23T06:32:54.000Z,29.1
2018-05-23T06:34:54.000Z,29.1
2018-05-23T06:35:54.000Z,29.1
2018-05-23T06:37:54.000Z,29.2
2018-05-23T06:39:54.000Z,29.1
2018-05-23T06:41:54.000Z,29
2018-05-23T06:43:54.000Z,28.9
2018-05-23T06:45:54.000Z,28.9
2018-05-23T06:47:54.000Z,29
2018-05-23T06:48:54.000Z,29
2018-05-23T06:49:54.000Z,29.1
2018-05-23T06:51:54.000Z,29.3
2018-05-23T06:53:39.000Z,29.3
2018-05-23T06:54:54.000Z,29.2
2018-05-23T06:56:39.000Z,29.3
2018-05-23T06:57:54.000Z,29.2
2018-05-23T06:58:54.000Z,29.3
2018-05-23T06:59:54.000Z,29.3
2018-05-23T07:01:54.000Z,29.4
2018-05-23T07:02:54.000Z,29.5
2018-05-23T07:04:54.000Z,29.5
2018-05-23T07:05:54.000Z,29.4
2018-05-23T07:07:54.000Z,29.4
2018-05-23T07:08:54.000Z,29.4
2018-05-23T07:10:54.000Z,29.3
2018-05-23T07:11:54.000Z,29.3
2018-05-23T07:12:54.000Z,29.3
2018-05-23T07:13:54.000Z,29.4
2018-05-23T07:14:54.000Z,29.4
2018-05-23T07:15:54.000Z,29.5
2018-05-23T07:17:54.000Z,29.6
2018-05-23T07:18:54.000Z,29.6
2018-05-23T07:19:54.000Z,29.6
2018-05-23T07:20:54.000Z,29.6
2018-05-23T07:22:54.000Z,29.6
2018-05-23T07:23:54.000Z,29.6
2018-05-23T07:25:54.000Z,29.6
2018-05-23T07:27:54.000Z,29.6
2018-05-23T07:28:54.000Z,29.6
2018-05-23T07:30:54.000Z,29.6
2018-05-23T07:31:54.000Z,29.6
2018-05-23T07:33:54.000Z,29.6
2018-05-23T07:34:54.000Z,29.7
2018-05-23T07:36:54.000Z,29.8
2018-05-23T07:37:54.000Z,29.8
2018-05-23T07:39:54.000Z,30
2018-05-23T07:40:54.000Z,30.1
2018-05-23T07:42:54.000Z,30.3
2018-05-23T07:43:54.000Z,30.4
2018-05-23T07:44:54.000Z,30.5
2018-05-23T07:45:54.000Z,30.6
2018-05-23T07:47:54.000Z,30.7
2018-05-23T07:49:54.000Z,30.8
2018-05-23T07:51:54.000Z,30.8
2018-05-23T07:53:54.000Z,30.7
2018-05-23T07:54:54.000Z,30.8
2018-05-23T07:56:54.000Z,30.9
2018-05-23T07:58:54.000Z,31
2018-05-23T08:00:54.000Z,31.1
2018-05-23T08:02:54.000Z,31.2
2018-05-23T08:04:54.000Z,31.3
2018-05-23T08:06:54.000Z,31.3
2018-05-23T08:08:54.000Z,31.5
2018-05-23T08:10:54.000Z,31.6
2018-05-23T08:12:39.000Z,31.7
2018-05-23T08:13:54.000Z,31.7
2018-05-23T08:15:54.000Z,31.9
2018-05-23T08:17:54.000Z,32.1
2018-05-23T08:19:39.000Z,32.3
2018-05-23T08:20:54.000Z,32.3
2018-05-23T08:21:54.000Z,32.5
2018-05-23T08:23:54.000Z,32.7
2018-05-23T08:24:54.000Z,32.8
2018-05-23T08:25:54.000Z,33
2018-05-23T08:26:54.000Z,33.1
2018-05-23T08:28:54.000Z,33.2
2018-05-23T08:29:54.000Z,33.1
2018-05-23T08:31:54.000Z,33
2018-05-23T08:33:54.000Z,32.8
2018-05-23T08:35:54.000Z,32.8
2018-05-23T08:37:54.000Z,32.6
2018-05-23T08:38:54.000Z,32.5
2018-05-23T08:40:54.000Z,32.5
2018-05-23T08:42:54.000Z,32.5
2018-05-23T08:43:54.000Z,32.5
2018-05-23T08:45:54.000Z,32.4
2018-05-23T08:47:54.000Z,32.2
2018-05-23T08:52:54.000Z,31.5
2018-05-23T08:54:40.000Z,31.4
2018-05-23T08:55:40.000Z,31.4
2018-05-23T08:57:25.000Z,31.5
2018-05-23T08:58:40.000Z,31.5
2018-05-23T08:59:40.000Z,31.5
2018-05-23T09:01:25.000Z,31.6
2018-05-23T09:02:40.000Z,31.6
2018-05-23T09:03:40.000Z,31.6
2018-05-23T09:05:40.000Z,31.6
2018-05-23T09:07:40.000Z,31.6
2018-05-23T09:08:40.000Z,31.6
2018-05-23T09:09:40.000Z,31.6
2018-05-23T09:11:40.000Z,31.7
2018-05-23T09:13:40.000Z,31.6
2018-05-23T09:15:40.000Z,31.5
2018-05-23T09:16:40.000Z,31.5
2018-05-23T09:17:40.000Z,31.6
2018-05-23T09:19:40.000Z,31.6
2018-05-23T09:21:25.000Z,31.5
2018-05-23T09:22:40.000Z,31.5
2018-05-23T09:23:40.000Z,31.5
2018-05-23T09:24:40.000Z,31.5
2018-05-23T09:26:40.000Z,31.5
2018-05-23T09:27:40.000Z,31.5
2018-05-23T09:29:40.000Z,31.6
2018-05-23T09:31:40.000Z,31.6
2018-05-23T09:32:40.000Z,31.6
2018-05-23T09:34:40.000Z,31.6
2018-05-23T09:36:25.000Z,31.6
2018-05-23T09:37:40.000Z,31.5
2018-05-23T09:39:40.000Z,31.6
2018-05-23T09:41:40.000Z,31.5
2018-05-23T09:42:40.000Z,31.6
2018-05-23T09:44:40.000Z,31.6
2018-05-23T09:46:40.000Z,31.6
2018-05-23T09:47:40.000Z,31.7
2018-05-23T09:49:40.000Z,31.8
2018-05-23T09:51:40.000Z,31.9
2018-05-23T09:52:40.000Z,31.9
2018-05-23T09:53:40.000Z,32
2018-05-23T09:54:40.000Z,32.1
2018-05-23T09:56:40.000Z,32.2
2018-05-23T09:58:40.000Z,32.1
2018-05-23T09:59:40.000Z,32
2018-05-23T10:01:40.000Z,31.8
2018-05-23T10:02:40.000Z,31.8
2018-05-23T10:03:40.000Z,31.8
2018-05-23T10:05:40.000Z,31.7
2018-05-23T10:06:40.000Z,31.7
2018-05-23T10:08:40.000Z,31.7
2018-05-23T10:10:40.000Z,31.8
2018-05-23T10:11:40.000Z,31.8
2018-05-23T10:13:40.000Z,31.9
2018-05-23T10:14:40.000Z,31.9
2018-05-23T10:15:40.000Z,31.9
2018-05-23T10:16:40.000Z,32
2018-05-23T10:18:40.000Z,32.1
2018-05-23T10:19:40.000Z,32
2018-05-23T10:20:40.000Z,32
2018-05-23T10:21:40.000Z,32.1
2018-05-23T10:23:40.000Z,32.1
2018-05-23T10:24:40.000Z,32.1
2018-05-23T10:26:40.000Z,32
2018-05-23T10:27:40.000Z,31.9
2018-05-23T10:29:40.000Z,32
2018-05-23T10:31:40.000Z,31.9
2018-05-23T10:33:40.000Z,31.8
2018-05-23T10:34:40.000Z,31.8
2018-05-23T10:35:40.000Z,31.7
2018-05-23T10:37:40.000Z,31.5
2018-05-23T10:39:40.000Z,31.4
2018-05-23T10:40:40.000Z,31.4
2018-05-23T10:41:40.000Z,31.4
2018-05-23T10:42:40.000Z,31.3
2018-05-23T10:44:40.000Z,31.3
2018-05-23T10:46:25.000Z,31.3
2018-05-23T10:47:40.000Z,31.3
2018-05-23T10:49:40.000Z,31.5
2018-05-23T10:51:40.000Z,31.5
2018-05-23T10:53:40.000Z,31.5
2018-05-23T10:55:40.000Z,31.4
2018-05-23T10:56:40.000Z,31.5
2018-05-23T10:58:40.000Z,31.4
2018-05-23T11:00:40.000Z,31.4
2018-05-23T11:02:40.000Z,31.4
2018-05-23T11:04:40.000Z,31.5
2018-05-23T11:06:40.000Z,31.5
2018-05-23T11:07:40.000Z,31.5
2018-05-23T11:09:40.000Z,31.5
2018-05-23T11:10:40.000Z,31.5
2018-05-23T11:11:40.000Z,31.6
2018-05-23T11:13:25.000Z,31.7
2018-05-23T11:14:40.000Z,31.8
2018-05-23T11:15:40.000Z,31.9
2018-05-23T11:17:40.000Z,32
2018-05-23T11:18:40.000Z,32
2018-05-23T11:20:40.000Z,32.1
2018-05-23T11:21:40.000Z,32.1
2018-05-23T11:23:40.000Z,32.1
2018-05-23T11:24:40.000Z,32
2018-05-23T11:25:40.000Z,32
2018-05-23T11:27:40.000Z,31.9
2018-05-23T11:29:40.000Z,31.9
2018-05-23T11:30:40.000Z,31.9
2018-05-23T11:32:40.000Z,32
2018-05-23T11:34:40.000Z,32.1
2018-05-23T11:35:40.000Z,32.2
2018-05-23T11:37:40.000Z,32.3
2018-05-23T11:38:40.000Z,32.3
2018-05-23T11:40:40.000Z,32.3
2018-05-23T11:42:40.000Z,32.2
2018-05-23T11:43:40.000Z,32.2
2018-05-23T11:44:40.000Z,32.2
2018-05-23T11:46:40.000Z,32.3
2018-05-23T11:47:40.000Z,32.3
2018-05-23T11:49:40.000Z,32.4
2018-05-23T11:51:40.000Z,32.5
2018-05-23T11:53:40.000Z,32.5
2018-05-23T11:54:40.000Z,32.5
2018-05-23T11:56:40.000Z,32.8
2018-05-23T11:57:40.000Z,32.9
2018-05-23T11:58:40.000Z,33
2018-05-23T12:00:40.000Z,33.2
2018-05-23T12:02:40.000Z,33.2
2018-05-23T12:03:40.000Z,33.3
2018-05-23T12:05:40.000Z,33.3
2018-05-23T12:07:40.000Z,33.4
2018-05-23T12:09:40.000Z,33.4
2018-05-23T12:11:40.000Z,33.5
2018-05-23T12:13:40.000Z,33.5
2018-05-23T12:14:40.000Z,33.4
2018-05-23T12:16:40.000Z,33.3
2018-05-23T12:17:40.000Z,33.1
2018-05-23T12:19:40.000Z,32.8
2018-05-23T12:21:40.000Z,32.6
2018-05-23T12:23:25.000Z,32.5
2018-05-23T12:24:40.000Z,32.4
2018-05-23T12:26:40.000Z,32.3
2018-05-23T12:27:40.000Z,32.4
2018-05-23T12:29:40.000Z,32.4
2018-05-23T12:30:40.000Z,32.4
2018-05-23T12:32:40.000Z,32.3
2018-05-23T12:34:40.000Z,32.3
2018-05-23T12:35:40.000Z,32.3
2018-05-23T12:36:40.000Z,32.4
2018-05-23T12:38:40.000Z,32.5
2018-05-23T12:40:40.000Z,32.7
2018-05-23T12:42:40.000Z,32.7
2018-05-23T12:44:40.000Z,32.8
2018-05-23T12:45:40.000Z,32.8
2018-05-23T12:47:39.000Z,32.8
2018-05-23T12:49:39.000Z,33
2018-05-23T12:50:39.000Z,33.1
2018-05-23T12:51:39.000Z,33.1
2018-05-23T12:53:39.000Z,33.5
2018-05-23T12:54:39.000Z,33.7
2018-05-23T12:56:39.000Z,34
2018-05-23T12:57:39.000Z,34.1
2018-05-23T12:59:39.000Z,34.2
2018-05-23T13:00:40.000Z,34.3
2018-05-23T13:02:40.000Z,34.4
2018-05-23T13:03:40.000Z,34.5
2018-05-23T13:05:40.000Z,34.7
2018-05-23T13:07:40.000Z,34.7
2018-05-23T13:09:40.000Z,34.8
2018-05-23T13:10:40.000Z,34.8
2018-05-23T13:12:40.000Z,34.8
2018-05-23T13:14:40.000Z,34.8
2018-05-23T13:16:40.000Z,34.7
2018-05-23T13:18:40.000Z,34.7
2018-05-23T13:20:40.000Z,34.6
2018-05-23T13:21:40.000Z,34.5
2018-05-23T13:23:40.000Z,34.2
2018-05-23T13:24:40.000Z,34.1
2018-05-23T13:26:40.000Z,33.8
2018-05-23T13:27:40.000Z,33.7
2018-05-23T13:28:40.000Z,33.6
2018-05-23T13:30:40.000Z,33.5
2018-05-23T13:31:40.000Z,33.4
2018-05-23T13:32:40.000Z,33.3
2018-05-23T13:34:40.000Z,33.2
2018-05-23T13:35:40.000Z,33.1
2018-05-23T13:37:40.000Z,33
2018-05-23T13:39:40.000Z,33
2018-05-23T13:41:40.000Z,32.9
2018-05-23T13:42:40.000Z,32.9
2018-05-23T13:43:40.000Z,32.9
2018-05-23T13:45:40.000Z,32.9
2018-05-23T13:47:40.000Z,32.8
2018-05-23T13:49:25.000Z,32.8
2018-05-23T13:50:40.000Z,32.8
2018-05-23T13:51:40.000Z,32.8
2018-05-23T13:53:40.000Z,32.8
2018-05-23T13:54:40.000Z,32.9
2018-05-23T13:56:40.000Z,32.9
2018-05-23T13:57:40.000Z,32.9
2018-05-23T13:59:25.000Z,33
2018-05-23T14:00:40.000Z,32.9
2018-05-23T14:01:40.000Z,32.9
2018-05-23T14:03:40.000Z,32.9
2018-05-23T14:04:40.000Z,32.9
2018-05-23T14:05:40.000Z,32.9
2018-05-23T14:06:40.000Z,33
2018-05-23T14:08:40.000Z,33
2018-05-23T14:10:40.000Z,32.9
2018-05-23T14:12:40.000Z,32.9
2018-05-23T14:14:40.000Z,32.8
2018-05-23T14:15:40.000Z,32.7
2018-05-23T14:16:40.000Z,32.8
2018-05-23T14:18:40.000Z,32.9
2018-05-23T14:19:40.000Z,32.9
2018-05-23T14:21:25.000Z,33
2018-05-23T14:22:40.000Z,32.9
2018-05-23T14:23:40.000Z,33
2018-05-23T14:24:40.000Z,33
2018-05-23T14:26:40.000Z,33
2018-05-23T14:28:40.000Z,32.9
2018-05-23T14:30:40.000Z,32.8
2018-05-23T14:31:40.000Z,32.8
2018-05-23T14:33:40.000Z,32.8
2018-05-23T14:35:40.000Z,32.8
2018-05-23T14:36:40.000Z,32.8
2018-05-23T14:38:40.000Z,32.8
2018-05-23T14:40:40.000Z,32.8
2018-05-23T14:42:40.000Z,32.7
2018-05-23T14:44:40.000Z,32.7
2018-05-23T14:45:40.000Z,32.7
2018-05-23T14:47:25.000Z,32.8
2018-05-23T14:48:40.000Z,32.8
2018-05-23T14:49:40.000Z,32.8
2018-05-23T14:51:40.000Z,32.8
2018-05-23T14:52:40.000Z,32.8
2018-05-23T14:53:40.000Z,32.8
2018-05-23T14:55:40.000Z,32.9
2018-05-23T14:56:40.000Z,32.9
2018-05-23T14:58:40.000Z,32.9
2018-05-23T14:59:40.000Z,32.9
2018-05-23T15:00:40.000Z,33
2018-05-23T15:04:33.000Z,33.3
2018-05-23T15:06:33.000Z,33.4
2018-05-23T15:07:34.000Z,33.3
2018-05-23T15:09:34.000Z,33.3
2018-05-23T15:11:34.000Z,33.2
2018-05-23T15:12:34.000Z,33.1
2018-05-23T15:14:34.000Z,33
2018-05-23T15:16:34.000Z,33
2018-05-23T15:17:34.000Z,33
2018-05-23T15:19:34.000Z,32.9
2018-05-23T15:21:34.000Z,32.9
2018-05-23T15:23:34.000Z,32.8
2018-05-23T15:25:34.000Z,32.7
2018-05-23T15:27:19.000Z,32.7
2018-05-23T15:28:34.000Z,32.6
2018-05-23T15:29:34.000Z,32.6
2018-05-23T15:31:34.000Z,32.7
2018-05-23T15:33:34.000Z,32.7
2018-05-23T15:35:34.000Z,32.7
2018-05-23T15:37:34.000Z,32.6
2018-05-23T15:38:34.000Z,32.6
2018-05-23T15:40:34.000Z,32.6
2018-05-23T15:41:34.000Z,32.6
2018-05-23T15:42:34.000Z,32.7
2018-05-23T15:44:34.000Z,32.8
2018-05-23T15:46:34.000Z,32.7
2018-05-23T15:48:34.000Z,32.6
2018-05-23T15:49:34.000Z,32.6
2018-05-23T15:51:34.000Z,32.6
2018-05-23T15:56:34.000Z,32
2018-05-23T15:58:20.000Z,32
2018-05-23T15:59:20.000Z,32
2018-05-23T16:01:20.000Z,32.2
2018-05-23T16:03:20.000Z,32.2
2018-05-23T16:05:20.000Z,32.2
2018-05-23T16:06:20.000Z,32.2
2018-05-23T16:08:20.000Z,32.3
2018-05-23T16:10:20.000Z,32.4
2018-05-23T16:11:20.000Z,32.4
2018-05-23T16:13:20.000Z,32.5
2018-05-23T16:14:20.000Z,32.5
2018-05-23T16:16:20.000Z,32.6
2018-05-23T16:17:20.000Z,32.6
2018-05-23T16:18:20.000Z,32.7
2018-05-23T16:20:20.000Z,32.8
2018-05-23T16:22:20.000Z,32.8
2018-05-23T16:24:20.000Z,32.8
2018-05-23T16:25:20.000Z,32.8
2018-05-23T16:27:20.000Z,32.9
2018-05-23T16:28:20.000Z,32.9
2018-05-23T16:29:20.000Z,33
2018-05-23T16:30:20.000Z,33
2018-05-23T16:31:20.000Z,33.1
2018-05-23T16:33:20.000Z,33.1
2018-05-23T16:35:20.000Z,33.1
2018-05-23T16:36:20.000Z,33.1
2018-05-23T16:38:20.000Z,33.1
2018-05-23T16:40:20.000Z,33
2018-05-23T16:42:20.000Z,32.8
2018-05-23T16:43:20.000Z,32.8
2018-05-23T16:45:20.000Z,32.8
2018-05-23T16:46:20.000Z,32.9
2018-05-23T16:48:20.000Z,33
2018-05-23T16:49:20.000Z,33
2018-05-23T16:51:20.000Z,33.1
2018-05-23T16:53:20.000Z,33.1
2018-05-23T16:54:20.000Z,33.1
2018-05-23T16:55:20.000Z,33.1
2018-05-23T16:56:20.000Z,33.1
2018-05-23T16:57:20.000Z,33.1
2018-05-23T16:59:20.000Z,33.1
2018-05-23T17:01:20.000Z,33.1
2018-05-23T17:02:20.000Z,33.1
2018-05-23T17:04:20.000Z,33.1
2018-05-23T17:05:20.000Z,33
2018-05-23T17:06:20.000Z,33.1
2018-05-23T17:07:20.000Z,33.1
2018-05-23T17:09:20.000Z,33.1
2018-05-23T17:10:20.000Z,33.1
2018-05-23T17:11:20.000Z,33.1
2018-05-23T17:13:20.000Z,33.1
2018-05-23T17:14:20.000Z,33.1
2018-05-23T17:16:19.000Z,33.1
2018-05-23T17:18:19.000Z,33
2018-05-23T17:19:19.000Z,33
2018-05-23T17:21:19.000Z,33
2018-05-23T17:23:19.000Z,32.9
2018-05-23T17:25:19.000Z,32.9
2018-05-23T17:27:19.000Z,32.8
2018-05-23T17:28:19.000Z,32.9
2018-05-23T17:30:19.000Z,32.9
2018-05-23T17:32:19.000Z,32.9
2018-05-23T17:34:19.000Z,32.7
2018-05-23T17:35:19.000Z,32.7
2018-05-23T17:36:19.000Z,32.8
2018-05-23T17:37:19.000Z,32.8
2018-05-23T17:39:19.000Z,32.9
2018-05-23T17:41:19.000Z,32.9
2018-05-23T17:43:19.000Z,32.8
2018-05-23T17:44:19.000Z,32.8
2018-05-23T17:45:19.000Z,32.9
2018-05-23T17:47:19.000Z,33
2018-05-23T17:48:19.000Z,33
2018-05-23T17:50:19.000Z,33
2018-05-23T17:52:19.000Z,33
2018-05-23T17:53:19.000Z,33
2018-05-23T17:55:19.000Z,33
2018-05-23T17:57:19.000Z,33
2018-05-23T17:58:19.000Z,32.9
2018-05-23T18:00:19.000Z,32.9
2018-05-23T18:01:19.000Z,32.9
2018-05-23T18:02:19.000Z,32.9
2018-05-23T18:03:19.000Z,33
2018-05-23T18:05:04.000Z,32.7
2018-05-23T18:06:19.000Z,33
2018-05-23T18:08:19.000Z,33
2018-05-23T18:10:19.000Z,32.9
2018-05-23T18:12:19.000Z,32.8
2018-05-23T18:13:19.000Z,32.8
2018-05-23T18:15:19.000Z,32.8
2018-05-23T18:17:19.000Z,32.7
2018-05-23T18:19:19.000Z,32.7
2018-05-23T18:21:04.000Z,32.6
2018-05-23T18:22:19.000Z,32.6
2018-05-23T18:24:19.000Z,32.6
2018-05-23T18:25:19.000Z,32.6
2018-05-23T18:26:19.000Z,32.6
2018-05-23T18:28:19.000Z,32.7
2018-05-23T18:29:19.000Z,32.7
2018-05-23T18:30:19.000Z,32.8
2018-05-23T18:31:19.000Z,32.8
2018-05-23T18:33:19.000Z,32.8
2018-05-23T18:35:19.000Z,32.8
2018-05-23T18:37:19.000Z,32.7
2018-05-23T18:39:19.000Z,32.7
2018-05-23T18:41:19.000Z,32.6
2018-05-23T18:43:04.000Z,32.5
2018-05-23T18:44:19.000Z,32.5
2018-05-23T18:46:19.000Z,32.5
2018-05-23T18:48:19.000Z,32.5
2018-05-23T18:50:19.000Z,32.4
2018-05-23T18:52:19.000Z,32.4
2018-05-23T18:53:19.000Z,32.4
2018-05-23T18:55:19.000Z,32.4
2018-05-23T18:56:19.000Z,32.4
2018-05-23T18:58:19.000Z,32.4
2018-05-23T18:59:19.000Z,32.5
2018-05-23T19:01:19.000Z,32.5
2018-05-23T19:02:19.000Z,32.5
2018-05-23T19:03:19.000Z,32.6
2018-05-23T19:05:19.000Z,32.6
2018-05-23T19:06:19.000Z,32.7
2018-05-23T19:08:19.000Z,32.7
2018-05-23T19:09:19.000Z,32.7
2018-05-23T19:11:04.000Z,32.6
2018-05-23T19:12:19.000Z,32.5
2018-05-23T19:13:19.000Z,32.5
2018-05-23T19:14:19.000Z,32.5
2018-05-23T19:15:19.000Z,32.6
2018-05-23T19:17:19.000Z,32.6
2018-05-23T19:18:19.000Z,32.6
2018-05-23T19:20:19.000Z,32.6
2018-05-23T19:21:19.000Z,32.6
2018-05-23T19:23:20.000Z,32.5
2018-05-23T19:25:20.000Z,32.5
2018-05-23T19:26:20.000Z,32.5
2018-05-23T19:27:20.000Z,32.5
2018-05-23T19:28:20.000Z,32.6
2018-05-23T19:30:20.000Z,32.5
2018-05-23T19:31:20.000Z,32.5
2018-05-23T19:32:20.000Z,32.6
2018-05-23T19:34:20.000Z,32.6
2018-05-23T19:35:20.000Z,32.6
2018-05-23T19:37:20.000Z,32.6
2018-05-23T19:38:20.000Z,32.6
2018-05-23T19:39:20.000Z,32.6
2018-05-23T19:41:20.000Z,32.6
2018-05-23T19:43:20.000Z,32.6
2018-05-23T19:45:20.000Z,32.4
2018-05-23T19:46:20.000Z,32.4
2018-05-23T19:47:20.000Z,32.4
2018-05-23T19:49:20.000Z,32.4
2018-05-23T19:50:20.000Z,32.4
2018-05-23T19:52:20.000Z,32.4
2018-05-23T19:54:20.000Z,32.4
2018-05-23T19:55:20.000Z,32.4
2018-05-23T19:57:20.000Z,32.4
2018-05-23T19:59:04.000Z,32.4
2018-05-23T20:00:20.000Z,32.3
2018-05-23T20:01:20.000Z,32.3
2018-05-23T20:02:20.000Z,32.3
2018-05-23T20:04:20.000Z,32.3
2018-05-23T20:06:04.000Z,32.2
2018-05-23T20:07:20.000Z,32.2
2018-05-23T20:08:20.000Z,32.2
2018-05-23T20:10:20.000Z,32.2
2018-05-23T20:11:20.000Z,32.3
2018-05-23T20:13:20.000Z,32.3
2018-05-23T20:15:04.000Z,32.3
2018-05-23T20:16:20.000Z,32.2
2018-05-23T20:18:20.000Z,32.2
2018-05-23T20:20:04.000Z,32.1
2018-05-23T20:21:20.000Z,32
2018-05-23T20:22:20.000Z,32
2018-05-23T20:23:20.000Z,32
2018-05-23T20:25:20.000Z,32
2018-05-23T20:26:20.000Z,32
2018-05-23T20:28:04.000Z,32
2018-05-23T20:29:20.000Z,32
2018-05-23T20:30:20.000Z,32.1
2018-05-23T20:32:04.000Z,32.1
2018-05-23T20:33:20.000Z,32.1
2018-05-23T20:34:20.000Z,32.1
2018-05-23T20:36:20.000Z,32.2
2018-05-23T20:37:20.000Z,32.2
2018-05-23T20:38:20.000Z,32.2
2018-05-23T20:39:20.000Z,32.3
2018-05-23T20:41:20.000Z,32.3
2018-05-23T20:42:20.000Z,32.3
2018-05-23T20:44:20.000Z,32.3
2018-05-23T20:46:20.000Z,32.3
2018-05-23T20:47:20.000Z,32.3
2018-05-23T20:49:20.000Z,32.3
2018-05-23T20:51:20.000Z,32.2
2018-05-23T20:53:20.000Z,32.2